createdAt,value
2023-04-01T08:01:07.550Z,500.00
2023-04-01T08:02:07.596Z,500.00
2023-04-01T08:03:07.730Z,500.00
2023-04-01T08:04:07.789Z,500.00
2023-04-01T08:05:07.701Z,500.00
2023-04-01T08:06:07.742Z,500.00
2023-04-01T08:07:07.793Z,400.00
2023-04-01T08:08:07.785Z,400.00
2023-04-01T08:09:07.785Z,400.00
2023-04-01T08:10:07.805Z,400.00
2023-04-01T08:11:07.816Z,400.00
2023-04-01T08:12:07.889Z,400.00
2023-04-01T08:13:07.957Z,400.00
2023-04-01T08:14:07.993Z,400.00
2023-04-01T08:15:08.031Z,400.00
2023-04-01T08:16:08.098Z,400.00
2023-04-01T08:17:08.142Z,400.00
2023-04-01T08:18:08.232Z,400.00
2023-04-01T08:19:08.227Z,400.00
2023-04-01T08:20:08.270Z,400.00
2023-04-01T08:21:08.270Z,400.00
2023-04-01T08:22:08.330Z,400.00
2023-04-01T08:23:08.333Z,400.00
2023-04-01T08:24:08.388Z,400.00
2023-04-01T08:25:08.449Z,429.00
2023-04-01T08:26:08.438Z,467.00
2023-04-01T08:27:08.469Z,502.00
2023-04-01T08:28:08.521Z,500.00
2023-04-01T08:29:08.508Z,501.00
2023-04-01T08:30:10.386Z,500.00
2023-04-01T08:31:08.585Z,500.00
2023-04-01T08:32:08.691Z,505.00
2023-04-01T08:33:08.678Z,501.00
2023-04-01T08:34:08.692Z,500.00
2023-04-01T08:35:08.752Z,500.00
2023-04-01T08:36:08.803Z,500.00
2023-04-01T08:37:08.783Z,504.00
2023-04-01T08:38:08.816Z,501.00
2023-04-01T08:39:08.820Z,500.00
2023-04-01T08:40:08.838Z,500.00
2023-04-01T08:41:08.916Z,504.00
2023-04-01T08:42:08.925Z,502.00
2023-04-01T08:43:08.946Z,500.00
2023-04-01T08:44:08.963Z,506.00
2023-04-01T08:45:08.982Z,503.00
2023-04-01T08:46:09.135Z,503.00
2023-04-01T08:47:09.125Z,500.00
2023-04-01T08:48:09.122Z,506.00
2023-04-01T08:49:09.140Z,506.00
2023-04-01T08:50:09.162Z,500.00
2023-04-01T08:51:09.155Z,503.00
2023-04-01T08:52:09.202Z,501.00
2023-04-01T08:53:09.225Z,508.00
2023-04-01T08:54:09.224Z,500.00
2023-04-01T08:55:09.262Z,504.00
2023-04-01T08:56:09.307Z,505.00
2023-04-01T08:57:09.336Z,500.00
2023-04-01T08:58:09.330Z,501.00
2023-04-01T08:59:09.409Z,511.00
2023-04-01T09:00:09.392Z,507.00
2023-04-01T09:01:09.392Z,501.00
2023-04-01T09:02:09.480Z,503.00
2023-04-01T09:03:09.605Z,503.00
2023-04-01T09:04:09.530Z,505.00
2023-04-01T09:05:09.490Z,509.00
2023-04-01T09:06:09.509Z,505.00
2023-04-01T09:07:11.541Z,502.00
2023-04-01T09:08:09.545Z,501.00
2023-04-01T09:09:09.537Z,500.00
2023-04-01T09:10:09.558Z,501.00
2023-04-01T09:11:09.542Z,505.00
2023-04-01T09:12:09.594Z,504.00
2023-04-01T09:13:09.509Z,501.00
2023-04-01T09:14:09.515Z,501.00
2023-04-01T09:15:09.495Z,507.00
2023-04-01T09:16:09.511Z,507.00
2023-04-01T09:17:09.522Z,506.00
2023-04-01T09:18:09.628Z,506.00
2023-04-01T09:19:10.035Z,505.00
2023-04-01T09:20:09.466Z,509.00
2023-04-01T09:21:09.501Z,507.00
2023-04-01T09:22:09.453Z,507.00
2023-04-01T09:23:09.436Z,500.00
2023-04-01T09:24:09.456Z,502.00
2023-04-01T09:25:09.432Z,503.00
2023-04-01T09:26:09.454Z,503.00
2023-04-01T09:27:09.441Z,505.00
2023-04-01T09:28:09.391Z,502.00
2023-04-01T09:29:09.423Z,503.00
2023-04-01T09:30:09.398Z,501.00
2023-04-01T09:31:09.443Z,505.00
2023-04-01T09:32:09.451Z,505.00
2023-04-01T09:33:09.378Z,502.00
2023-04-01T09:34:09.362Z,505.00
2023-04-01T09:35:09.395Z,503.00
2023-04-01T09:36:09.520Z,504.00
2023-04-01T09:37:09.356Z,505.00
2023-04-01T09:38:09.363Z,507.00
2023-04-01T09:39:09.358Z,505.00
2023-04-01T09:40:09.340Z,502.00
2023-04-01T09:41:09.338Z,501.00
2023-04-01T09:42:09.309Z,505.00
2023-04-01T09:43:09.310Z,503.00
2023-04-01T09:44:09.307Z,506.00
2023-04-01T09:45:09.339Z,507.00
2023-04-01T09:46:09.332Z,501.00
2023-04-01T09:47:09.280Z,502.00
2023-04-01T09:48:09.302Z,505.00
2023-04-01T09:49:09.249Z,501.00
2023-04-01T09:50:09.259Z,509.00
2023-04-01T09:51:09.254Z,511.00
2023-04-01T09:52:09.292Z,509.00
2023-04-01T09:53:09.253Z,500.00
2023-04-01T09:54:09.937Z,502.00
2023-04-01T09:55:09.222Z,507.00
2023-04-01T09:56:09.231Z,507.00
2023-04-01T09:57:09.256Z,507.00
2023-04-01T09:58:09.236Z,506.00
2023-04-01T09:59:09.203Z,500.00
2023-04-01T10:00:09.204Z,502.00
2023-04-01T10:01:09.192Z,507.00
2023-04-01T10:02:09.273Z,505.00
2023-04-01T10:03:09.205Z,504.00
2023-04-01T10:04:09.153Z,507.00
2023-04-01T10:05:09.225Z,506.00
2023-04-01T10:06:09.262Z,503.00
2023-04-01T10:07:09.138Z,507.00
2023-04-01T10:08:09.168Z,502.00
2023-04-01T10:09:09.182Z,506.00
2023-04-01T10:10:09.139Z,503.00
2023-04-01T10:11:09.125Z,506.00
2023-04-01T10:12:09.103Z,506.00
2023-04-01T10:13:09.129Z,505.00
2023-04-01T10:14:09.135Z,509.00
2023-04-01T10:15:09.136Z,510.00
2023-04-01T10:16:09.190Z,508.00
2023-04-01T10:17:09.190Z,504.00
2023-04-01T10:18:09.227Z,506.00
2023-04-01T10:19:09.207Z,505.00
2023-04-01T10:20:09.293Z,506.00
2023-04-01T10:21:09.287Z,506.00
2023-04-01T10:22:09.328Z,506.00
2023-04-01T10:23:09.353Z,504.00
2023-04-01T10:24:09.406Z,504.00
2023-04-01T10:25:09.352Z,501.00
2023-04-01T10:26:09.450Z,503.00
2023-04-01T10:27:09.388Z,509.00
2023-04-01T10:28:09.479Z,506.00
2023-04-01T10:29:09.435Z,505.00
2023-04-01T10:30:09.502Z,506.00
2023-04-01T10:31:09.450Z,504.00
2023-04-01T10:32:09.745Z,504.00
2023-04-01T10:33:09.536Z,505.00
2023-04-01T10:34:09.571Z,508.00
2023-04-01T10:35:09.523Z,507.00
2023-04-01T10:36:09.647Z,507.00
2023-04-01T10:37:09.593Z,504.00
2023-04-01T10:38:09.609Z,508.00
2023-04-01T10:39:09.662Z,507.00
2023-04-01T10:40:09.591Z,507.00
2023-04-01T10:41:10.474Z,510.00
2023-04-01T10:42:09.617Z,510.00
2023-04-01T10:43:09.615Z,505.00
2023-04-01T10:44:09.687Z,503.00
2023-04-01T10:45:09.696Z,505.00
2023-04-01T10:46:09.703Z,504.00
2023-04-01T10:47:09.731Z,502.00
2023-04-01T10:48:09.770Z,503.00
2023-04-01T10:49:09.725Z,505.00
2023-04-01T10:50:09.720Z,508.00
2023-04-01T10:51:09.746Z,507.00
2023-04-01T10:52:09.772Z,507.00
2023-04-01T10:53:09.797Z,510.00
2023-04-01T10:54:09.767Z,501.00
2023-04-01T10:55:09.794Z,505.00
2023-04-01T10:56:09.817Z,504.00
2023-04-01T10:57:09.862Z,501.00
2023-04-01T10:58:09.840Z,506.00
2023-04-01T10:59:09.874Z,505.00
2023-04-01T11:00:09.844Z,508.00
2023-04-01T11:01:09.969Z,506.00
2023-04-01T11:02:11.949Z,506.00
2023-04-01T11:03:09.982Z,505.00
2023-04-01T11:04:09.912Z,508.00
2023-04-01T11:05:09.892Z,511.00
2023-04-01T11:06:09.935Z,512.00
2023-04-01T11:07:09.966Z,505.00
2023-04-01T11:08:09.997Z,512.00
2023-04-01T11:09:09.949Z,509.00
2023-04-01T11:10:09.948Z,508.00
2023-04-01T11:11:09.983Z,509.00
2023-04-01T11:12:10.030Z,510.00
2023-04-01T11:13:09.989Z,503.00
2023-04-01T11:14:10.034Z,506.00
2023-04-01T11:15:10.078Z,506.00
2023-04-01T11:16:10.133Z,502.00
2023-04-01T11:17:10.066Z,502.00
2023-04-01T11:18:10.085Z,511.00
2023-04-01T11:19:10.053Z,503.00
2023-04-01T11:20:10.076Z,505.00
2023-04-01T11:21:10.078Z,508.00
2023-04-01T11:22:10.098Z,505.00
2023-04-01T11:23:10.112Z,505.00
2023-04-01T11:24:10.078Z,506.00
2023-04-01T11:25:10.062Z,506.00
2023-04-01T11:26:10.113Z,505.00
2023-04-01T11:27:10.193Z,506.00
2023-04-01T11:28:10.085Z,505.00
2023-04-01T11:29:10.118Z,503.00
2023-04-01T11:30:10.115Z,508.00
2023-04-01T11:31:10.173Z,505.00
2023-04-01T11:32:10.135Z,505.00
2023-04-01T11:33:10.201Z,506.00
2023-04-01T11:34:10.156Z,507.00
2023-04-01T11:35:10.176Z,500.00
2023-04-01T11:36:10.156Z,501.00
2023-04-01T11:37:10.169Z,500.00
2023-04-01T11:38:10.147Z,505.00
2023-04-01T11:39:10.167Z,501.00
2023-04-01T11:40:10.172Z,506.00
2023-04-01T11:41:10.251Z,503.00
2023-04-01T11:42:10.211Z,506.00
2023-04-01T11:43:11.665Z,505.00
2023-04-01T11:44:10.227Z,505.00
2023-04-01T11:45:10.244Z,504.00
2023-04-01T11:46:10.261Z,506.00
2023-04-01T11:47:10.250Z,507.00
2023-04-01T11:48:10.234Z,506.00
2023-04-01T11:49:10.183Z,506.00
2023-04-01T11:50:10.165Z,505.00
2023-04-01T11:51:10.197Z,506.00
2023-04-01T11:52:10.173Z,507.00
2023-04-01T11:53:10.196Z,507.00
2023-04-01T11:54:10.160Z,507.00
2023-04-01T11:55:10.199Z,504.00
2023-04-01T11:56:10.159Z,505.00
2023-04-01T11:57:10.199Z,509.00
2023-04-01T11:58:10.136Z,504.00
2023-04-01T11:59:10.142Z,505.00
2023-04-01T12:00:10.165Z,505.00
2023-04-01T12:01:10.097Z,507.00
2023-04-01T12:02:10.161Z,511.00
2023-04-01T12:03:10.217Z,508.00
2023-04-01T12:04:10.264Z,509.00
2023-04-01T12:05:10.067Z,506.00
2023-04-01T12:06:10.143Z,510.00
2023-04-01T12:07:10.103Z,511.00
2023-04-01T12:08:10.100Z,507.00
2023-04-01T12:09:10.136Z,512.00
2023-04-01T12:10:10.159Z,507.00
2023-04-01T12:11:10.192Z,509.00
2023-04-01T12:12:10.227Z,507.00
2023-04-01T12:13:10.242Z,510.00
2023-04-01T12:14:10.247Z,506.00
2023-04-01T12:15:10.295Z,507.00
2023-04-01T12:16:10.349Z,504.00
2023-04-01T12:17:10.346Z,506.00
2023-04-01T12:18:10.438Z,509.00
2023-04-01T12:19:10.445Z,510.00
2023-04-01T12:20:10.562Z,511.00
2023-04-01T12:21:10.503Z,506.00
2023-04-01T12:22:10.534Z,507.00
2023-04-01T12:23:10.598Z,509.00
2023-04-01T12:24:10.611Z,507.00
2023-04-01T12:25:10.656Z,508.00
2023-04-01T12:26:10.769Z,505.00
2023-04-01T12:27:10.778Z,509.00
2023-04-01T12:28:10.815Z,505.00
2023-04-01T12:29:10.846Z,506.00
2023-04-01T12:30:10.926Z,502.00
2023-04-01T12:31:10.972Z,508.00
2023-04-01T12:32:11.087Z,504.00
2023-04-01T12:33:11.098Z,503.00
2023-04-01T12:34:11.105Z,505.00
2023-04-01T12:35:11.169Z,500.00
2023-04-01T12:36:11.279Z,508.00
2023-04-01T12:37:11.276Z,501.00
2023-04-01T12:38:11.332Z,503.00
2023-04-01T12:39:11.356Z,506.00
2023-04-01T12:40:11.368Z,504.00
2023-04-01T12:41:11.521Z,506.00
2023-04-01T12:42:11.545Z,502.00
2023-04-01T12:43:11.543Z,509.00
2023-04-01T12:44:11.600Z,508.00
2023-04-01T12:45:11.637Z,503.00
2023-04-01T12:46:11.668Z,500.00
2023-04-01T12:47:11.727Z,502.00
2023-04-01T12:48:11.833Z,503.00
2023-04-01T12:49:11.819Z,503.00
2023-04-01T12:50:11.862Z,503.00
2023-04-01T12:51:11.891Z,502.00
2023-04-01T12:52:11.964Z,504.00
2023-04-01T12:53:12.000Z,506.00
2023-04-01T12:54:12.036Z,508.00
2023-04-01T12:55:12.122Z,507.00
2023-04-01T12:56:12.182Z,506.00
2023-04-01T12:57:12.288Z,505.00
2023-04-01T12:58:12.265Z,505.00
2023-04-01T12:59:12.317Z,504.00
2023-04-01T13:00:12.375Z,507.00
